createdAt,value
2019-05-30T00:00:18.296Z,972.2
2019-05-30T00:15:06.798Z,972.25
2019-05-30T00:30:04.738Z,972.66
2019-05-30T00:45:25.327Z,972.74
2019-05-30T01:00:05.252Z,972.69
2019-05-30T01:15:05.345Z,972.82
2019-05-30T01:30:05.875Z,972.58
2019-05-30T01:45:04.672Z,972.36
2019-05-30T02:00:26.897Z,972.39
2019-05-30T02:15:05.754Z,972.22
2019-05-30T02:30:15.233Z,972.14
2019-05-30T02:45:13.411Z,972.3
2019-05-30T03:00:18.359Z,972.5
2019-05-30T03:15:15.686Z,972.33
2019-05-30T03:30:31.693Z,972.6
2019-05-30T03:45:16.386Z,972.9
2019-05-30T04:00:16.200Z,973.07
2019-05-30T04:15:04.600Z,973.23
2019-05-30T04:30:04.805Z,973.42
2019-05-30T04:45:04.637Z,973.67
2019-05-30T05:00:04.443Z,973.67
2019-05-30T05:15:04.728Z,973.58
2019-05-30T05:30:04.714Z,973.34
2019-05-30T05:45:04.468Z,973.18
2019-05-30T06:00:04.253Z,972.77
2019-05-30T06:15:10.282Z,971.95
2019-05-30T06:30:04.833Z,972.22
2019-05-30T06:45:04.607Z,972.03
2019-05-30T07:00:04.396Z,972.03
2019-05-30T07:15:05.101Z,971.03
2019-05-30T07:30:09.827Z,973.81
2019-05-30T07:45:05.158Z,971.89
2019-05-30T08:00:04.931Z,970.4
2019-05-30T08:15:04.711Z,971.89
2019-05-30T08:30:04.688Z,971.67
2019-05-30T08:45:05.003Z,970.98
2019-05-30T09:00:04.339Z,969.58
2019-05-30T09:15:05.089Z,975.47
2019-05-30T09:30:05.010Z,970.6
2019-05-30T09:45:04.784Z,971.39
2019-05-30T10:00:04.544Z,971.8
2019-05-30T10:15:04.289Z,971.75
2019-05-30T10:30:04.210Z,972
2019-05-30T10:45:04.912Z,972.46
2019-05-30T11:00:04.668Z,972.19
2019-05-30T11:15:05.003Z,971.86
2019-05-30T11:30:04.532Z,972.16
2019-05-30T11:45:04.600Z,971.72
2019-05-30T12:00:04.435Z,971.17
2019-05-30T12:15:04.646Z,971.14
2019-05-30T12:30:04.168Z,971.01
2019-05-30T12:45:07.710Z,970.79
2019-05-30T13:00:19.387Z,970.73
2019-05-30T13:15:06.026Z,970.49
2019-05-30T13:30:04.523Z,970.76
2019-05-30T13:45:04.408Z,970.35
2019-05-30T14:00:06.021Z,970.07
2019-05-30T14:15:14.764Z,970.05
2019-05-30T14:30:04.867Z,970.18
2019-05-30T14:45:06.612Z,970.02
2019-05-30T15:00:05.187Z,970.24
2019-05-30T15:15:18.067Z,969.96
2019-05-30T15:30:04.475Z,969.91
2019-05-30T15:45:04.811Z,969.64
2019-05-30T16:00:05.165Z,969.88
2019-05-30T16:15:04.437Z,969.85
2019-05-30T16:30:05.190Z,969.64
2019-05-30T16:45:05.074Z,969.91
2019-05-30T17:00:04.356Z,970.35
2019-05-30T17:15:04.637Z,970.46
2019-05-30T17:30:05.228Z,970.43
2019-05-30T17:45:04.471Z,970.49
2019-05-30T18:00:04.906Z,970.71
2019-05-30T18:15:05.170Z,970.76
2019-05-30T18:30:04.707Z,971.01
2019-05-30T18:45:04.404Z,971.36
2019-05-30T19:00:06.249Z,971.89
2019-05-30T19:15:04.607Z,972.02
2019-05-30T19:30:04.741Z,972.49
2019-05-30T19:45:04.540Z,972.85
2019-05-30T20:00:04.261Z,973.34
2019-05-30T20:15:04.958Z,973.75
2019-05-30T20:30:04.897Z,974.33
2019-05-30T20:45:10.659Z,974.63
2019-05-30T21:00:04.501Z,974.99
2019-05-30T21:15:04.845Z,975.23
2019-05-30T21:30:04.515Z,975.54
2019-05-30T21:45:05.024Z,975.84
2019-05-30T22:00:04.790Z,968.55
2019-05-30T22:15:05.268Z,968.74
2019-05-30T22:30:04.313Z,968.77
2019-05-30T22:45:05.009Z,969.2
2019-05-30T23:00:04.733Z,969.47
2019-05-30T23:15:04.509Z,969.8
2019-05-30T23:30:04.581Z,969.88
2019-05-30T23:45:04.939Z,970.1
